Accueil
METAR-TAF:

METAR-TAF

Aéroports :

Aéroport international de Bergame-Orio al Serio (Le Caravage)

Bergame, Italie

latitude: 45-40N, longitude: 009-42E, altitude: 238 m

Observation

Le bulletin a été fait il y a 38 minutes, à 09:20 UTC
Vent 5 kt de sud/sud-est, variant entre est/nord-est et sud-ouest
Température 19°C
Humidité 49%
Pression 1017 hPa
Visibilité 10 km ou plus
Quelques nuages à une hauteur de 6000 ft

METAR: LIME 300920Z 16005KT 070V220 9999 FEW060 19/08 Q1017 NOSIG

Heure: 11:58 (09:58 UTC)

Prévision

Le bulletin a été fait il y a 4 heures et 58 minutes, à 05:00 UTC
Prévision valable du 30 à 06 UTC au 31 à 06 UTC
Vent 5 kt de direction variable
Visibilité 10 km ou plus
Nuages épars à une hauteur de 6000 ft
Temporairement
du 30 à 17 UTC au 31 à 06 UTC
averses de pluie

TAF: LIME 300500Z 3006/3106 VRB05KT 9999 SCT060 TEMPO 3017/3106 SHRA

Observations et prévisions météorologiques de plus de 4000 aéroports (messages METAR et TAF).

Les stations disponibles sont représentées par des disques jaunes et rouges sur la carte.

Passer la souris dessus pour voir le nom de la station.

Cliquer dessus pour voir les observations et prévisions météorologiques.

Pour changer de carte: cliquez sur les boutons verts avec une croix noire pour zoomer, sur le bouton vert avec un tiret pour effectuer un zoom arrière, ou sur les flèches vertes pour les cartes adjacentes.


METAR-TAF: